sensor_id;sensor_type;location;lat;lon;timestamp;P1;durP1;ratioP1;P2;durP2;ratioP2
7669;SDS011;3877;42.562;27.636;2023-05-10T00:01:57;12.93;;;4.93;;
7669;SDS011;3877;42.562;27.636;2023-05-10T00:04:24;13.10;;;4.90;;
7669;SDS011;3877;42.562;27.636;2023-05-10T00:06:52;15.30;;;5.00;;
7669;SDS011;3877;42.562;27.636;2023-05-10T00:09:19;7.53;;;4.27;;
7669;SDS011;3877;42.562;27.636;2023-05-10T00:11:47;10.30;;;4.80;;
7669;SDS011;3877;42.562;27.636;2023-05-10T00:14:14;13.07;;;4.70;;
7669;SDS011;3877;42.562;27.636;2023-05-10T00:16:41;8.63;;;4.60;;
7669;SDS011;3877;42.562;27.636;2023-05-10T00:19:07;11.27;;;4.93;;
7669;SDS011;3877;42.562;27.636;2023-05-10T00:21:34;15.80;;;4.43;;
7669;SDS011;3877;42.562;27.636;2023-05-10T00:24:01;10.33;;;4.70;;
7669;SDS011;3877;42.562;27.636;2023-05-10T00:26:28;12.53;;;4.80;;
7669;SDS011;3877;42.562;27.636;2023-05-10T00:28:56;9.27;;;5.23;;
7669;SDS011;3877;42.562;27.636;2023-05-10T00:31:23;14.63;;;5.70;;
7669;SDS011;3877;42.562;27.636;2023-05-10T00:33:50;14.37;;;5.57;;
7669;SDS011;3877;42.562;27.636;2023-05-10T00:36:17;13.27;;;5.23;;
7669;SDS011;3877;42.562;27.636;2023-05-10T00:38:44;10.37;;;5.03;;
7669;SDS011;3877;42.562;27.636;2023-05-10T00:41:11;13.03;;;5.37;;
7669;SDS011;3877;42.562;27.636;2023-05-10T00:43:37;16.40;;;4.87;;
7669;SDS011;3877;42.562;27.636;2023-05-10T00:46:05;12.30;;;4.77;;
7669;SDS011;3877;42.562;27.636;2023-05-10T00:48:32;7.13;;;4.90;;
7669;SDS011;3877;42.562;27.636;2023-05-10T00:51:00;14.17;;;4.73;;
7669;SDS011;3877;42.562;27.636;2023-05-10T00:53:27;8.77;;;4.77;;
7669;SDS011;3877;42.562;27.636;2023-05-10T00:55:54;9.07;;;4.40;;
7669;SDS011;3877;42.562;27.636;2023-05-10T00:58:20;8.97;;;4.37;;
7669;SDS011;3877;42.562;27.636;2023-05-10T01:00:49;7.07;;;3.87;;
7669;SDS011;3877;42.562;27.636;2023-05-10T01:03:17;7.83;;;4.30;;
7669;SDS011;3877;42.562;27.636;2023-05-10T01:05:44;12.80;;;4.57;;
7669;SDS011;3877;42.562;27.636;2023-05-10T01:08:11;11.30;;;4.67;;
7669;SDS011;3877;42.562;27.636;2023-05-10T01:10:37;11.10;;;4.73;;
7669;SDS011;3877;42.562;27.636;2023-05-10T01:13:04;11.87;;;4.93;;
7669;SDS011;3877;42.562;27.636;2023-05-10T01:15:31;11.97;;;4.90;;
7669;SDS011;3877;42.562;27.636;2023-05-10T01:17:58;9.50;;;4.77;;
7669;SDS011;3877;42.562;27.636;2023-05-10T01:20:27;7.20;;;4.27;;
7669;SDS011;3877;42.562;27.636;2023-05-10T01:23:08;8.30;;;4.30;;
7669;SDS011;3877;42.562;27.636;2023-05-10T01:28:44;15.40;;;4.93;;
7669;SDS011;3877;42.562;27.636;2023-05-10T01:31:28;12.20;;;5.90;;
7669;SDS011;3877;42.562;27.636;2023-05-10T01:33:59;17.17;;;6.27;;
7669;SDS011;3877;42.562;27.636;2023-05-10T01:36:30;17.47;;;5.67;;
7669;SDS011;3877;42.562;27.636;2023-05-10T01:38:59;17.80;;;6.50;;
7669;SDS011;3877;42.562;27.636;2023-05-10T01:41:28;17.33;;;6.50;;
7669;SDS011;3877;42.562;27.636;2023-05-10T01:44:01;19.37;;;5.60;;
7669;SDS011;3877;42.562;27.636;2023-05-10T01:46:31;18.57;;;6.87;;
7669;SDS011;3877;42.562;27.636;2023-05-10T01:49:00;12.43;;;6.37;;
7669;SDS011;3877;42.562;27.636;2023-05-10T01:51:31;18.27;;;6.17;;
7669;SDS011;3877;42.562;27.636;2023-05-10T01:54:03;12.10;;;6.17;;
7669;SDS011;3877;42.562;27.636;2023-05-10T01:56:31;10.73;;;5.67;;
7669;SDS011;3877;42.562;27.636;2023-05-10T01:58:58;8.63;;;5.20;;
7669;SDS011;3877;42.562;27.636;2023-05-10T02:01:28;10.60;;;5.70;;
7669;SDS011;3877;42.562;27.636;2023-05-10T02:03:55;12.60;;;6.20;;
7669;SDS011;3877;42.562;27.636;2023-05-10T02:06:23;9.17;;;5.80;;
7669;SDS011;3877;42.562;27.636;2023-05-10T02:08:50;9.67;;;6.10;;
7669;SDS011;3877;42.562;27.636;2023-05-10T02:11:18;11.43;;;6.37;;
7669;SDS011;3877;42.562;27.636;2023-05-10T02:13:46;12.67;;;6.37;;
7669;SDS011;3877;42.562;27.636;2023-05-10T02:16:13;18.40;;;6.13;;
7669;SDS011;3877;42.562;27.636;2023-05-10T02:18:41;9.87;;;5.90;;
7669;SDS011;3877;42.562;27.636;2023-05-10T02:21:08;12.13;;;6.43;;
7669;SDS011;3877;42.562;27.636;2023-05-10T02:23:37;13.87;;;6.60;;
7669;SDS011;3877;42.562;27.636;2023-05-10T02:26:05;11.07;;;6.83;;
7669;SDS011;3877;42.562;27.636;2023-05-10T02:28:32;9.43;;;5.80;;
7669;SDS011;3877;42.562;27.636;2023-05-10T02:31:00;10.13;;;6.60;;
7669;SDS011;3877;42.562;27.636;2023-05-10T02:33:27;12.37;;;6.90;;
7669;SDS011;3877;42.562;27.636;2023-05-10T02:35:54;14.00;;;6.57;;
7669;SDS011;3877;42.562;27.636;2023-05-10T02:38:22;13.10;;;6.67;;
7669;SDS011;3877;42.562;27.636;2023-05-10T02:40:50;12.50;;;6.67;;
7669;SDS011;3877;42.562;27.636;2023-05-10T02:43:17;15.97;;;7.20;;
7669;SDS011;3877;42.562;27.636;2023-05-10T02:45:45;9.47;;;6.33;;
7669;SDS011;3877;42.562;27.636;2023-05-10T02:48:13;12.63;;;6.70;;
7669;SDS011;3877;42.562;27.636;2023-05-10T02:50:40;18.13;;;7.33;;
7669;SDS011;3877;42.562;27.636;2023-05-10T02:53:09;14.73;;;6.43;;
7669;SDS011;3877;42.562;27.636;2023-05-10T02:55:37;12.37;;;6.83;;
7669;SDS011;3877;42.562;27.636;2023-05-10T02:58:06;11.63;;;6.47;;
7669;SDS011;3877;42.562;27.636;2023-05-10T03:00:33;15.73;;;6.70;;
7669;SDS011;3877;42.562;27.636;2023-05-10T03:03:00;9.97;;;6.63;;
7669;SDS011;3877;42.562;27.636;2023-05-10T03:05:27;13.77;;;6.80;;
7669;SDS011;3877;42.562;27.636;2023-05-10T03:07:54;16.07;;;7.10;;
7669;SDS011;3877;42.562;27.636;2023-05-10T03:10:21;12.40;;;7.13;;
7669;SDS011;3877;42.562;27.636;2023-05-10T03:12:52;10.90;;;6.60;;
7669;SDS011;3877;42.562;27.636;2023-05-10T03:15:28;14.47;;;7.23;;
7669;SDS011;3877;42.562;27.636;2023-05-10T03:18:00;13.57;;;6.90;;
7669;SDS011;3877;42.562;27.636;2023-05-10T03:20:29;17.97;;;7.30;;
7669;SDS011;3877;42.562;27.636;2023-05-10T03:22:59;11.93;;;6.67;;
7669;SDS011;3877;42.562;27.636;2023-05-10T03:25:27;13.27;;;6.73;;
7669;SDS011;3877;42.562;27.636;2023-05-10T03:27:55;9.93;;;6.03;;
7669;SDS011;3877;42.562;27.636;2023-05-10T03:30:23;13.90;;;6.50;;
7669;SDS011;3877;42.562;27.636;2023-05-10T03:32:52;11.30;;;7.73;;
7669;SDS011;3877;42.562;27.636;2023-05-10T03:35:19;14.20;;;6.83;;
7669;SDS011;3877;42.562;27.636;2023-05-10T03:37:46;22.77;;;6.07;;
7669;SDS011;3877;42.562;27.636;2023-05-10T03:40:13;11.30;;;6.57;;
7669;SDS011;3877;42.562;27.636;2023-05-10T03:42:40;11.57;;;5.57;;
7669;SDS011;3877;42.562;27.636;2023-05-10T03:45:07;10.07;;;6.00;;
7669;SDS011;3877;42.562;27.636;2023-05-10T03:47:34;13.07;;;6.10;;
7669;SDS011;3877;42.562;27.636;2023-05-10T03:50:02;15.23;;;6.17;;
7669;SDS011;3877;42.562;27.636;2023-05-10T03:52:29;12.47;;;6.10;;
7669;SDS011;3877;42.562;27.636;2023-05-10T03:54:56;11.67;;;6.10;;
7669;SDS011;3877;42.562;27.636;2023-05-10T03:57:23;17.23;;;5.90;;
7669;SDS011;3877;42.562;27.636;2023-05-10T03:59:50;7.87;;;5.90;;
7669;SDS011;3877;42.562;27.636;2023-05-10T04:02:17;13.87;;;6.33;;
7669;SDS011;3877;42.562;27.636;2023-05-10T04:04:44;14.47;;;5.60;;
7669;SDS011;3877;42.562;27.636;2023-05-10T04:07:12;15.37;;;6.80;;
7669;SDS011;3877;42.562;27.636;2023-05-10T04:09:39;8.87;;;5.90;;
7669;SDS011;3877;42.562;27.636;2023-05-10T04:12:06;12.73;;;6.77;;
7669;SDS011;3877;42.562;27.636;2023-05-10T04:14:32;10.30;;;6.00;;
7669;SDS011;3877;42.562;27.636;2023-05-10T04:16:59;16.43;;;6.37;;
7669;SDS011;3877;42.562;27.636;2023-05-10T04:19:28;17.17;;;6.27;;
7669;SDS011;3877;42.562;27.636;2023-05-10T04:21:55;13.67;;;6.80;;
7669;SDS011;3877;42.562;27.636;2023-05-10T04:24:23;11.10;;;6.20;;
7669;SDS011;3877;42.562;27.636;2023-05-10T04:26:50;15.73;;;6.60;;
7669;SDS011;3877;42.562;27.636;2023-05-10T04:29:17;9.10;;;6.07;;
7669;SDS011;3877;42.562;27.636;2023-05-10T04:31:44;9.83;;;6.07;;
7669;SDS011;3877;42.562;27.636;2023-05-10T04:34:10;11.77;;;6.60;;
7669;SDS011;3877;42.562;27.636;2023-05-10T04:36:37;12.67;;;6.63;;
7669;SDS011;3877;42.562;27.636;2023-05-10T04:39:04;10.80;;;6.63;;
7669;SDS011;3877;42.562;27.636;2023-05-10T04:41:32;12.10;;;6.97;;
7669;SDS011;3877;42.562;27.636;2023-05-10T04:43:59;10.80;;;7.17;;
7669;SDS011;3877;42.562;27.636;2023-05-10T04:46:26;12.70;;;7.30;;
7669;SDS011;3877;42.562;27.636;2023-05-10T04:48:53;12.60;;;6.80;;
7669;SDS011;3877;42.562;27.636;2023-05-10T04:51:20;9.87;;;6.30;;
7669;SDS011;3877;42.562;27.636;2023-05-10T04:53:46;8.93;;;6.30;;
7669;SDS011;3877;42.562;27.636;2023-05-10T04:56:13;9.27;;;5.00;;
7669;SDS011;3877;42.562;27.636;2023-05-10T04:58:42;10.90;;;5.97;;
7669;SDS011;3877;42.562;27.636;2023-05-10T05:01:09;9.03;;;5.40;;
7669;SDS011;3877;42.562;27.636;2023-05-10T05:03:36;13.83;;;5.93;;
7669;SDS011;3877;42.562;27.636;2023-05-10T05:06:03;10.63;;;5.63;;
7669;SDS011;3877;42.562;27.636;2023-05-10T05:08:30;11.13;;;6.30;;
7669;SDS011;3877;42.562;27.636;2023-05-10T05:10:57;13.93;;;5.60;;
7669;SDS011;3877;42.562;27.636;2023-05-10T05:13:24;6.63;;;5.20;;
7669;SDS011;3877;42.562;27.636;2023-05-10T05:15:52;6.87;;;4.37;;
7669;SDS011;3877;42.562;27.636;2023-05-10T05:18:19;7.63;;;4.57;;
7669;SDS011;3877;42.562;27.636;2023-05-10T05:20:46;11.60;;;4.70;;
7669;SDS011;3877;42.562;27.636;2023-05-10T05:23:14;6.17;;;4.00;;
7669;SDS011;3877;42.562;27.636;2023-05-10T05:25:41;9.37;;;3.10;;
7669;SDS011;3877;42.562;27.636;2023-05-10T05:28:08;10.17;;;3.13;;
7669;SDS011;3877;42.562;27.636;2023-05-10T05:30:35;7.43;;;3.00;;
7669;SDS011;3877;42.562;27.636;2023-05-10T05:33:03;12.83;;;3.77;;
7669;SDS011;3877;42.562;27.636;2023-05-10T05:35:30;5.33;;;2.90;;
7669;SDS011;3877;42.562;27.636;2023-05-10T05:37:57;9.33;;;3.50;;
7669;SDS011;3877;42.562;27.636;2023-05-10T05:40:23;6.40;;;3.10;;
7669;SDS011;3877;42.562;27.636;2023-05-10T05:42:50;8.13;;;3.57;;
7669;SDS011;3877;42.562;27.636;2023-05-10T05:45:17;5.80;;;3.50;;
7669;SDS011;3877;42.562;27.636;2023-05-10T05:47:44;7.47;;;3.60;;
7669;SDS011;3877;42.562;27.636;2023-05-10T05:50:12;5.50;;;3.23;;
7669;SDS011;3877;42.562;27.636;2023-05-10T05:52:39;6.77;;;3.47;;
7669;SDS011;3877;42.562;27.636;2023-05-10T05:55:06;6.07;;;3.23;;
7669;SDS011;3877;42.562;27.636;2023-05-10T05:57:33;4.90;;;2.87;;
7669;SDS011;3877;42.562;27.636;2023-05-10T06:00:00;6.73;;;3.10;;
7669;SDS011;3877;42.562;27.636;2023-05-10T06:02:27;9.20;;;2.70;;
7669;SDS011;3877;42.562;27.636;2023-05-10T06:04:54;7.17;;;2.80;;
7669;SDS011;3877;42.562;27.636;2023-05-10T06:07:23;5.70;;;2.87;;
7669;SDS011;3877;42.562;27.636;2023-05-10T06:09:50;6.37;;;2.90;;
7669;SDS011;3877;42.562;27.636;2023-05-10T06:12:17;9.43;;;3.00;;
7669;SDS011;3877;42.562;27.636;2023-05-10T06:14:44;6.47;;;3.03;;
7669;SDS011;3877;42.562;27.636;2023-05-10T06:17:11;9.80;;;2.73;;
7669;SDS011;3877;42.562;27.636;2023-05-10T06:19:38;5.07;;;2.50;;
7669;SDS011;3877;42.562;27.636;2023-05-10T06:22:05;4.13;;;2.20;;
7669;SDS011;3877;42.562;27.636;2023-05-10T06:24:33;4.73;;;2.20;;
7669;SDS011;3877;42.562;27.636;2023-05-10T06:27:00;4.80;;;2.37;;
7669;SDS011;3877;42.562;27.636;2023-05-10T06:29:27;22.07;;;3.80;;
7669;SDS011;3877;42.562;27.636;2023-05-10T06:31:54;5.10;;;2.03;;
7669;SDS011;3877;42.562;27.636;2023-05-10T06:34:20;6.53;;;2.37;;
7669;SDS011;3877;42.562;27.636;2023-05-10T06:36:47;6.67;;;2.60;;
7669;SDS011;3877;42.562;27.636;2023-05-10T06:39:14;8.47;;;2.60;;
7669;SDS011;3877;42.562;27.636;2023-05-10T06:41:42;6.57;;;2.60;;
7669;SDS011;3877;42.562;27.636;2023-05-10T06:44:09;9.37;;;2.70;;
7669;SDS011;3877;42.562;27.636;2023-05-10T06:46:36;5.00;;;2.30;;
7669;SDS011;3877;42.562;27.636;2023-05-10T06:49:03;5.83;;;2.60;;
7669;SDS011;3877;42.562;27.636;2023-05-10T06:51:31;6.30;;;2.77;;
7669;SDS011;3877;42.562;27.636;2023-05-10T06:53:58;7.07;;;2.40;;
7669;SDS011;3877;42.562;27.636;2023-05-10T06:56:24;8.97;;;2.57;;
7669;SDS011;3877;42.562;27.636;2023-05-10T06:58:53;6.97;;;2.27;;
7669;SDS011;3877;42.562;27.636;2023-05-10T07:01:20;5.83;;;2.20;;
7669;SDS011;3877;42.562;27.636;2023-05-10T07:03:46;4.27;;;2.23;;
7669;SDS011;3877;42.562;27.636;2023-05-10T07:06:13;8.10;;;2.73;;
7669;SDS011;3877;42.562;27.636;2023-05-10T07:08:40;11.67;;;2.70;;
7669;SDS011;3877;42.562;27.636;2023-05-10T07:11:07;4.00;;;2.37;;
7669;SDS011;3877;42.562;27.636;2023-05-10T07:13:34;5.23;;;2.27;;
7669;SDS011;3877;42.562;27.636;2023-05-10T07:16:02;4.43;;;2.80;;
7669;SDS011;3877;42.562;27.636;2023-05-10T07:18:31;6.33;;;2.60;;
7669;SDS011;3877;42.562;27.636;2023-05-10T07:20:58;8.10;;;2.90;;
7669;SDS011;3877;42.562;27.636;2023-05-10T07:23:24;5.57;;;2.90;;
7669;SDS011;3877;42.562;27.636;2023-05-10T07:25:51;4.17;;;2.73;;
7669;SDS011;3877;42.562;27.636;2023-05-10T07:28:19;4.73;;;2.83;;
7669;SDS011;3877;42.562;27.636;2023-05-10T07:30:45;13.27;;;2.67;;
7669;SDS011;3877;42.562;27.636;2023-05-10T07:33:14;6.97;;;2.93;;
7669;SDS011;3877;42.562;27.636;2023-05-10T07:35:41;5.67;;;2.23;;
7669;SDS011;3877;42.562;27.636;2023-05-10T07:38:08;4.30;;;2.60;;
7669;SDS011;3877;42.562;27.636;2023-05-10T07:40:36;5.43;;;2.20;;
7669;SDS011;3877;42.562;27.636;2023-05-10T07:43:03;9.47;;;2.83;;
7669;SDS011;3877;42.562;27.636;2023-05-10T07:45:30;4.87;;;3.00;;
7669;SDS011;3877;42.562;27.636;2023-05-10T07:47:56;4.70;;;2.67;;
7669;SDS011;3877;42.562;27.636;2023-05-10T07:50:25;4.70;;;3.00;;
7669;SDS011;3877;42.562;27.636;2023-05-10T07:52:52;11.57;;;2.93;;
7669;SDS011;3877;42.562;27.636;2023-05-10T07:55:18;8.23;;;3.00;;
7669;SDS011;3877;42.562;27.636;2023-05-10T07:57:46;5.17;;;2.60;;
7669;SDS011;3877;42.562;27.636;2023-05-10T08:00:13;7.73;;;2.70;;
7669;SDS011;3877;42.562;27.636;2023-05-10T08:02:43;6.10;;;2.70;;
7669;SDS011;3877;42.562;27.636;2023-05-10T08:05:10;5.27;;;2.60;;
7669;SDS011;3877;42.562;27.636;2023-05-10T08:07:38;5.13;;;2.60;;
7669;SDS011;3877;42.562;27.636;2023-05-10T08:10:05;7.33;;;2.73;;
7669;SDS011;3877;42.562;27.636;2023-05-10T08:12:32;6.27;;;2.83;;
7669;SDS011;3877;42.562;27.636;2023-05-10T08:14:59;5.20;;;2.60;;
7669;SDS011;3877;42.562;27.636;2023-05-10T08:17:25;10.03;;;3.00;;
7669;SDS011;3877;42.562;27.636;2023-05-10T08:19:52;8.73;;;3.20;;
7669;SDS011;3877;42.562;27.636;2023-05-10T08:22:19;4.50;;;2.83;;
7669;SDS011;3877;42.562;27.636;2023-05-10T08:24:48;5.03;;;2.90;;
7669;SDS011;3877;42.562;27.636;2023-05-10T08:27:15;6.37;;;2.73;;
7669;SDS011;3877;42.562;27.636;2023-05-10T08:29:42;6.53;;;2.93;;
7669;SDS011;3877;42.562;27.636;2023-05-10T08:32:08;7.53;;;2.57;;
7669;SDS011;3877;42.562;27.636;2023-05-10T08:34:36;5.50;;;2.90;;
7669;SDS011;3877;42.562;27.636;2023-05-10T08:37:03;6.73;;;2.73;;
7669;SDS011;3877;42.562;27.636;2023-05-10T08:39:33;5.27;;;3.30;;
7669;SDS011;3877;42.562;27.636;2023-05-10T08:42:02;9.27;;;3.20;;
7669;SDS011;3877;42.562;27.636;2023-05-10T08:44:30;7.30;;;2.97;;
7669;SDS011;3877;42.562;27.636;2023-05-10T08:46:58;7.50;;;3.10;;
7669;SDS011;3877;42.562;27.636;2023-05-10T08:49:25;5.93;;;3.10;;
7669;SDS011;3877;42.562;27.636;2023-05-10T08:51:54;15.13;;;3.87;;
7669;SDS011;3877;42.562;27.636;2023-05-10T08:54:21;14.13;;;3.63;;
7669;SDS011;3877;42.562;27.636;2023-05-10T08:56:48;6.77;;;3.27;;
7669;SDS011;3877;42.562;27.636;2023-05-10T08:59:16;8.87;;;4.20;;
7669;SDS011;3877;42.562;27.636;2023-05-10T09:01:43;6.90;;;3.70;;
7669;SDS011;3877;42.562;27.636;2023-05-10T09:04:11;8.13;;;3.17;;
7669;SDS011;3877;42.562;27.636;2023-05-10T09:06:38;12.67;;;3.10;;
7669;SDS011;3877;42.562;27.636;2023-05-10T09:09:05;8.13;;;2.90;;
7669;SDS011;3877;42.562;27.636;2023-05-10T09:11:31;7.53;;;3.07;;
7669;SDS011;3877;42.562;27.636;2023-05-10T09:13:58;6.83;;;3.17;;
7669;SDS011;3877;42.562;27.636;2023-05-10T09:16:26;4.00;;;3.17;;
7669;SDS011;3877;42.562;27.636;2023-05-10T09:18:53;5.53;;;3.10;;
7669;SDS011;3877;42.562;27.636;2023-05-10T09:21:20;5.70;;;3.00;;
7669;SDS011;3877;42.562;27.636;2023-05-10T09:23:47;10.33;;;2.80;;
7669;SDS011;3877;42.562;27.636;2023-05-10T09:26:15;5.37;;;2.53;;
7669;SDS011;3877;42.562;27.636;2023-05-10T09:28:52;9.93;;;3.30;;
7669;SDS011;3877;42.562;27.636;2023-05-10T09:31:19;7.00;;;3.17;;
7669;SDS011;3877;42.562;27.636;2023-05-10T09:33:48;8.50;;;3.20;;
7669;SDS011;3877;42.562;27.636;2023-05-10T09:36:15;5.57;;;3.13;;
7669;SDS011;3877;42.562;27.636;2023-05-10T09:38:46;8.17;;;3.20;;
7669;SDS011;3877;42.562;27.636;2023-05-10T09:41:17;4.73;;;2.93;;
7669;SDS011;3877;42.562;27.636;2023-05-10T09:43:43;5.50;;;3.27;;
7669;SDS011;3877;42.562;27.636;2023-05-10T09:46:10;6.83;;;3.30;;
7669;SDS011;3877;42.562;27.636;2023-05-10T09:48:39;4.30;;;2.80;;
7669;SDS011;3877;42.562;27.636;2023-05-10T09:51:09;4.77;;;2.83;;
7669;SDS011;3877;42.562;27.636;2023-05-10T09:53:36;12.13;;;3.37;;
7669;SDS011;3877;42.562;27.636;2023-05-10T09:56:03;6.80;;;3.07;;
7669;SDS011;3877;42.562;27.636;2023-05-10T09:58:30;5.63;;;3.37;;
7669;SDS011;3877;42.562;27.636;2023-05-10T10:00:56;5.80;;;3.30;;
7669;SDS011;3877;42.562;27.636;2023-05-10T10:03:23;10.57;;;3.30;;
7669;SDS011;3877;42.562;27.636;2023-05-10T10:05:50;6.67;;;3.20;;
7669;SDS011;3877;42.562;27.636;2023-05-10T10:08:19;7.70;;;3.10;;
7669;SDS011;3877;42.562;27.636;2023-05-10T10:10:46;5.07;;;3.07;;
7669;SDS011;3877;42.562;27.636;2023-05-10T10:13:13;7.90;;;3.37;;
7669;SDS011;3877;42.562;27.636;2023-05-10T10:15:40;9.27;;;3.33;;
7669;SDS011;3877;42.562;27.636;2023-05-10T10:18:08;9.67;;;3.90;;
7669;SDS011;3877;42.562;27.636;2023-05-10T10:20:38;8.10;;;2.97;;
7669;SDS011;3877;42.562;27.636;2023-05-10T10:23:06;4.60;;;2.90;;
7669;SDS011;3877;42.562;27.636;2023-05-10T10:25:35;6.50;;;3.10;;
7669;SDS011;3877;42.562;27.636;2023-05-10T10:28:06;8.90;;;3.40;;
7669;SDS011;3877;42.562;27.636;2023-05-10T10:30:37;7.20;;;3.10;;
7669;SDS011;3877;42.562;27.636;2023-05-10T10:33:13;7.20;;;3.07;;
7669;SDS011;3877;42.562;27.636;2023-05-10T10:35:44;8.97;;;2.93;;
7669;SDS011;3877;42.562;27.636;2023-05-10T10:38:12;7.80;;;2.77;;
7669;SDS011;3877;42.562;27.636;2023-05-10T10:40:40;7.07;;;3.10;;
7669;SDS011;3877;42.562;27.636;2023-05-10T10:43:23;7.03;;;3.20;;
7669;SDS011;3877;42.562;27.636;2023-05-10T10:46:10;6.00;;;2.87;;
7669;SDS011;3877;42.562;27.636;2023-05-10T10:48:37;8.83;;;3.10;;
7669;SDS011;3877;42.562;27.636;2023-05-10T10:51:04;5.83;;;2.77;;
7669;SDS011;3877;42.562;27.636;2023-05-10T10:53:31;8.43;;;2.90;;
7669;SDS011;3877;42.562;27.636;2023-05-10T10:56:09;8.33;;;2.90;;
7669;SDS011;3877;42.562;27.636;2023-05-10T10:58:36;5.60;;;2.80;;
7669;SDS011;3877;42.562;27.636;2023-05-10T11:01:13;5.93;;;3.00;;
7669;SDS011;3877;42.562;27.636;2023-05-10T11:03:40;4.17;;;2.70;;
7669;SDS011;3877;42.562;27.636;2023-05-10T11:06:07;7.27;;;2.33;;
7669;SDS011;3877;42.562;27.636;2023-05-10T11:08:34;7.80;;;2.73;;
7669;SDS011;3877;42.562;27.636;2023-05-10T11:11:09;5.77;;;2.93;;
7669;SDS011;3877;42.562;27.636;2023-05-10T11:13:40;14.17;;;2.87;;
7669;SDS011;3877;42.562;27.636;2023-05-10T11:16:16;9.77;;;2.50;;
7669;SDS011;3877;42.562;27.636;2023-05-10T11:18:53;10.70;;;2.70;;
7669;SDS011;3877;42.562;27.636;2023-05-10T11:21:20;5.80;;;2.70;;
7669;SDS011;3877;42.562;27.636;2023-05-10T11:23:50;5.23;;;2.80;;
7669;SDS011;3877;42.562;27.636;2023-05-10T11:26:18;4.23;;;2.77;;
7669;SDS011;3877;42.562;27.636;2023-05-10T11:28:48;7.37;;;2.80;;
7669;SDS011;3877;42.562;27.636;2023-05-10T11:31:15;3.97;;;2.87;;
7669;SDS011;3877;42.562;27.636;2023-05-10T11:33:42;7.30;;;3.07;;
7669;SDS011;3877;42.562;27.636;2023-05-10T11:36:10;11.53;;;3.00;;
7669;SDS011;3877;42.562;27.636;2023-05-10T11:38:37;9.63;;;2.97;;
7669;SDS011;3877;42.562;27.636;2023-05-10T11:41:04;7.90;;;2.83;;
7669;SDS011;3877;42.562;27.636;2023-05-10T11:43:32;8.30;;;3.20;;
7669;SDS011;3877;42.562;27.636;2023-05-10T11:45:59;5.53;;;3.10;;
7669;SDS011;3877;42.562;27.636;2023-05-10T11:48:26;6.90;;;2.70;;
7669;SDS011;3877;42.562;27.636;2023-05-10T11:50:52;7.07;;;3.03;;
7669;SDS011;3877;42.562;27.636;2023-05-10T11:53:22;7.70;;;3.30;;
7669;SDS011;3877;42.562;27.636;2023-05-10T11:55:48;7.03;;;3.37;;
7669;SDS011;3877;42.562;27.636;2023-05-10T11:58:17;7.57;;;2.83;;
7669;SDS011;3877;42.562;27.636;2023-05-10T12:00:46;7.67;;;3.40;;
7669;SDS011;3877;42.562;27.636;2023-05-10T12:03:13;7.33;;;3.00;;
7669;SDS011;3877;42.562;27.636;2023-05-10T12:05:40;6.83;;;2.90;;
7669;SDS011;3877;42.562;27.636;2023-05-10T12:08:11;8.93;;;2.90;;
7669;SDS011;3877;42.562;27.636;2023-05-10T12:10:38;5.07;;;3.10;;
7669;SDS011;3877;42.562;27.636;2023-05-10T12:13:05;9.10;;;3.00;;
7669;SDS011;3877;42.562;27.636;2023-05-10T12:15:32;12.33;;;3.43;;
7669;SDS011;3877;42.562;27.636;2023-05-10T12:18:00;9.63;;;3.47;;
7669;SDS011;3877;42.562;27.636;2023-05-10T12:20:28;4.70;;;3.07;;
7669;SDS011;3877;42.562;27.636;2023-05-10T12:22:55;6.60;;;3.57;;
7669;SDS011;3877;42.562;27.636;2023-05-10T12:25:23;10.10;;;3.60;;
7669;SDS011;3877;42.562;27.636;2023-05-10T12:27:51;9.23;;;3.17;;
7669;SDS011;3877;42.562;27.636;2023-05-10T12:30:21;6.93;;;3.00;;
7669;SDS011;3877;42.562;27.636;2023-05-10T12:32:48;8.37;;;3.10;;
7669;SDS011;3877;42.562;27.636;2023-05-10T12:35:17;8.17;;;3.37;;
7669;SDS011;3877;42.562;27.636;2023-05-10T12:37:47;6.50;;;3.17;;
7669;SDS011;3877;42.562;27.636;2023-05-10T12:40:14;8.10;;;3.67;;
7669;SDS011;3877;42.562;27.636;2023-05-10T12:42:41;6.67;;;3.23;;
7669;SDS011;3877;42.562;27.636;2023-05-10T12:45:10;8.87;;;3.60;;
7669;SDS011;3877;42.562;27.636;2023-05-10T12:47:37;14.33;;;3.80;;
7669;SDS011;3877;42.562;27.636;2023-05-10T12:50:04;9.93;;;3.60;;
7669;SDS011;3877;42.562;27.636;2023-05-10T12:52:32;9.77;;;3.13;;
7669;SDS011;3877;42.562;27.636;2023-05-10T12:54:59;32.20;;;4.37;;
7669;SDS011;3877;42.562;27.636;2023-05-10T12:57:26;8.43;;;3.30;;
7669;SDS011;3877;42.562;27.636;2023-05-10T12:59:54;15.43;;;3.70;;
7669;SDS011;3877;42.562;27.636;2023-05-10T13:02:21;14.97;;;3.57;;
7669;SDS011;3877;42.562;27.636;2023-05-10T13:04:48;7.40;;;3.23;;
7669;SDS011;3877;42.562;27.636;2023-05-10T13:07:15;10.83;;;3.20;;
7669;SDS011;3877;42.562;27.636;2023-05-10T13:09:43;8.40;;;3.27;;
7669;SDS011;3877;42.562;27.636;2023-05-10T13:12:10;10.27;;;3.20;;
7669;SDS011;3877;42.562;27.636;2023-05-10T13:14:37;9.27;;;3.33;;
7669;SDS011;3877;42.562;27.636;2023-05-10T13:17:05;4.67;;;3.00;;
7669;SDS011;3877;42.562;27.636;2023-05-10T13:19:32;4.43;;;2.70;;
7669;SDS011;3877;42.562;27.636;2023-05-10T13:21:59;5.77;;;3.33;;
7669;SDS011;3877;42.562;27.636;2023-05-10T13:24:26;7.73;;;2.90;;
7669;SDS011;3877;42.562;27.636;2023-05-10T13:26:54;9.03;;;3.10;;
7669;SDS011;3877;42.562;27.636;2023-05-10T13:29:20;6.43;;;3.10;;
7669;SDS011;3877;42.562;27.636;2023-05-10T13:31:47;7.50;;;3.20;;
7669;SDS011;3877;42.562;27.636;2023-05-10T13:34:14;6.60;;;3.00;;
7669;SDS011;3877;42.562;27.636;2023-05-10T13:36:41;7.90;;;2.83;;
7669;SDS011;3877;42.562;27.636;2023-05-10T13:39:09;7.00;;;2.93;;
7669;SDS011;3877;42.562;27.636;2023-05-10T13:41:35;8.53;;;3.20;;
7669;SDS011;3877;42.562;27.636;2023-05-10T13:44:04;8.80;;;3.03;;
7669;SDS011;3877;42.562;27.636;2023-05-10T13:46:30;10.97;;;3.47;;
7669;SDS011;3877;42.562;27.636;2023-05-10T13:48:57;7.47;;;3.13;;
7669;SDS011;3877;42.562;27.636;2023-05-10T13:51:25;12.57;;;2.87;;
7669;SDS011;3877;42.562;27.636;2023-05-10T13:53:52;12.30;;;3.50;;
7669;SDS011;3877;42.562;27.636;2023-05-10T13:59:07;7.40;;;3.23;;
7669;SDS011;3877;42.562;27.636;2023-05-10T14:01:34;10.10;;;3.70;;
7669;SDS011;3877;42.562;27.636;2023-05-10T14:04:01;5.77;;;3.17;;
7669;SDS011;3877;42.562;27.636;2023-05-10T14:06:28;8.70;;;3.03;;
7669;SDS011;3877;42.562;27.636;2023-05-10T14:08:55;12.23;;;3.33;;
7669;SDS011;3877;42.562;27.636;2023-05-10T14:11:23;12.80;;;3.20;;
7669;SDS011;3877;42.562;27.636;2023-05-10T14:13:51;8.27;;;3.50;;
7669;SDS011;3877;42.562;27.636;2023-05-10T14:16:19;7.07;;;2.90;;
7669;SDS011;3877;42.562;27.636;2023-05-10T14:18:46;4.53;;;2.80;;
7669;SDS011;3877;42.562;27.636;2023-05-10T14:21:13;9.77;;;3.00;;
7669;SDS011;3877;42.562;27.636;2023-05-10T14:23:40;9.43;;;3.20;;
7669;SDS011;3877;42.562;27.636;2023-05-10T14:26:07;9.27;;;3.47;;
7669;SDS011;3877;42.562;27.636;2023-05-10T14:28:34;9.53;;;2.90;;
7669;SDS011;3877;42.562;27.636;2023-05-10T14:31:00;12.47;;;2.80;;
7669;SDS011;3877;42.562;27.636;2023-05-10T14:33:29;14.97;;;3.17;;
7669;SDS011;3877;42.562;27.636;2023-05-10T14:35:56;7.67;;;2.90;;
7669;SDS011;3877;42.562;27.636;2023-05-10T14:38:22;5.77;;;2.80;;
7669;SDS011;3877;42.562;27.636;2023-05-10T14:40:49;7.93;;;3.00;;
7669;SDS011;3877;42.562;27.636;2023-05-10T14:43:16;6.93;;;2.63;;
7669;SDS011;3877;42.562;27.636;2023-05-10T14:45:43;5.30;;;2.27;;
7669;SDS011;3877;42.562;27.636;2023-05-10T14:48:10;6.40;;;2.70;;
7669;SDS011;3877;42.562;27.636;2023-05-10T14:50:41;8.73;;;3.20;;
7669;SDS011;3877;42.562;27.636;2023-05-10T14:56:03;7.40;;;2.73;;
7669;SDS011;3877;42.562;27.636;2023-05-10T14:58:30;5.20;;;2.87;;
7669;SDS011;3877;42.562;27.636;2023-05-10T15:00:57;3.93;;;2.50;;
7669;SDS011;3877;42.562;27.636;2023-05-10T15:03:24;9.87;;;2.73;;
7669;SDS011;3877;42.562;27.636;2023-05-10T15:05:52;5.60;;;2.90;;
7669;SDS011;3877;42.562;27.636;2023-05-10T15:08:19;8.87;;;3.30;;